Lebanon, KY (40033)

9:25 PM EDT on July 29, 2015 (GMT -0400)
Clay Hill Memorial Forest | | Change Station
CLOSE
Current Station
Personal Weather Station
Location: Campbellsville, KY
Elevation: 955 ft
Nearby Weather Stations

Elev 955 ft 37.44 °N, 85.36 °W | Updated 3 minutes ago

Thunderstorm
Thunderstorm
75.1 °F
Feels Like 73 °F
N
0.4
Wind Variable Wind from WNW
Gusts 4.9 mph

Today
High -- | Low -- °F
--% Chance of Precip.
Yesterday
High -- | Low -- °F
Precip. -- in
6:42 AM 8:52 PM
Waxing Gibbous, 97% visible
Pressure 30.03 in
Visibility 10.0 miles
Clouds Scattered Clouds 5500 ft
Scattered Clouds 7000 ft
Scattered Clouds 11000 ft
Heat Index 73 °F
Dew Point 70 °F
Humidity 95%
Rainfall -999.00 in
Snow Depth Not available.
UV 0 out of 12
Pollen 4.30 out of 12
Air Quality Not available.
Flu Activity Not available.
METAR KDVK 300115Z AUTO 25003KT 10SM -RA SCT055 SCT070 SCT110 22/21 A3003 RMK AO2

More Conditions Fewer Conditions

Pressure 30.03 in
Visibility 10.0 miles
Clouds Scattered Clouds 5500 ft
Scattered Clouds 7000 ft
Scattered Clouds 11000 ft
Heat Index 73 °F
Dew Point 70 °F
Humidity 95%
Rainfall -999.00 in
Snow Depth Not available.
UV 0 out of 12
Pollen 4.30 out of 12
Air Quality Not available.
Flu Activity Not available.
METAR KDVK 300115Z AUTO 25003KT 10SM -RA SCT055 SCT070 SCT110 22/21 A3003 RMK AO2

More Conditions Fewer Conditions

10-Day Weather Forecast

×

Almanac

Astronomy

Jul. 29, 2015 Rise Set
Actual Time
Civil Twilight
Nautical Twilight
Astronomical Twilight
Moon
Length of Visible Light
Length of Day
Tomorrow will be .
, % of the Moon is Illuminated

Today's Extremes

State Highs State Lows

Community

WunderPhotos

Upload Photos

1,842,245 photos uploaded!

WunderBlogs® & News

Nearby

Air Quality

  Air Quality AQ Index Pollutant
Not available.

Snow Depth

Station Depth Elevation

Earthquake Activity

City Distance Mag. Time & Date
Minimum magnitude displayed is 2.5.

Coastal Water Temperatures

Place Temperature

Stations

Nearby Weather Stations

Station Location Temp. Windchill Dew Point Humidity Wind Precip. Elev Updated Type